sensor_id;sensor_type;location;lat;lon;timestamp;temperature;humidity
64062;DHT22;50308;47.438;-1.528;2022-09-12T00:01:11;20.90;65.10
64062;DHT22;50308;47.438;-1.528;2022-09-12T00:03:38;20.90;64.90
64062;DHT22;50308;47.438;-1.528;2022-09-12T00:06:14;20.80;64.80
64062;DHT22;50308;47.438;-1.528;2022-09-12T00:08:41;20.80;65.20
64062;DHT22;50308;47.438;-1.528;2022-09-12T00:11:09;20.70;65.00
64062;DHT22;50308;47.438;-1.528;2022-09-12T00:13:37;20.70;65.40
64062;DHT22;50308;47.438;-1.528;2022-09-12T00:16:03;20.70;65.30
64062;DHT22;50308;47.438;-1.528;2022-09-12T00:18:30;20.60;65.40
64062;DHT22;50308;47.438;-1.528;2022-09-12T00:21:00;20.60;65.60
64062;DHT22;50308;47.438;-1.528;2022-09-12T00:23:26;20.60;65.50
64062;DHT22;50308;47.438;-1.528;2022-09-12T00:25:52;20.60;65.70
64062;DHT22;50308;47.438;-1.528;2022-09-12T00:28:18;20.60;65.70
64062;DHT22;50308;47.438;-1.528;2022-09-12T00:30:48;20.50;65.70
64062;DHT22;50308;47.438;-1.528;2022-09-12T00:33:16;20.60;65.70
64062;DHT22;50308;47.438;-1.528;2022-09-12T00:35:44;20.50;65.90
64062;DHT22;50308;47.438;-1.528;2022-09-12T00:38:11;20.60;66.10
64062;DHT22;50308;47.438;-1.528;2022-09-12T00:40:37;20.50;65.80
64062;DHT22;50308;47.438;-1.528;2022-09-12T00:43:04;20.50;66.00
64062;DHT22;50308;47.438;-1.528;2022-09-12T00:45:30;20.60;66.00
64062;DHT22;50308;47.438;-1.528;2022-09-12T00:48:00;20.50;66.00
64062;DHT22;50308;47.438;-1.528;2022-09-12T00:50:28;20.50;66.00
64062;DHT22;50308;47.438;-1.528;2022-09-12T00:53:05;20.50;66.00
64062;DHT22;50308;47.438;-1.528;2022-09-12T00:55:37;20.50;66.10
64062;DHT22;50308;47.438;-1.528;2022-09-12T00:58:18;20.40;66.10
64062;DHT22;50308;47.438;-1.528;2022-09-12T01:00:45;20.40;66.00
64062;DHT22;50308;47.438;-1.528;2022-09-12T01:03:14;20.40;66.00
64062;DHT22;50308;47.438;-1.528;2022-09-12T01:05:46;20.40;66.30
64062;DHT22;50308;47.438;-1.528;2022-09-12T01:08:18;20.40;67.30
64062;DHT22;50308;47.438;-1.528;2022-09-12T01:10:45;20.40;66.10
64062;DHT22;50308;47.438;-1.528;2022-09-12T01:13:11;20.40;66.20
64062;DHT22;50308;47.438;-1.528;2022-09-12T01:15:39;20.40;66.10
64062;DHT22;50308;47.438;-1.528;2022-09-12T01:18:14;20.40;66.30
64062;DHT22;50308;47.438;-1.528;2022-09-12T01:20:50;20.40;66.50
64062;DHT22;50308;47.438;-1.528;2022-09-12T01:26:26;20.30;66.30
64062;DHT22;50308;47.438;-1.528;2022-09-12T01:32:09;20.40;66.40
64062;DHT22;50308;47.438;-1.528;2022-09-12T01:34:54;20.40;66.60
64062;DHT22;50308;47.438;-1.528;2022-09-12T01:37:48;20.40;66.60
64062;DHT22;50308;47.438;-1.528;2022-09-12T01:43:30;20.40;66.80
64062;DHT22;50308;47.438;-1.528;2022-09-12T01:46:08;20.40;66.60
64062;DHT22;50308;47.438;-1.528;2022-09-12T01:53:49;20.40;66.80
64062;DHT22;50308;47.438;-1.528;2022-09-12T01:56:25;20.40;66.60
64062;DHT22;50308;47.438;-1.528;2022-09-12T01:59:02;20.40;66.50
64062;DHT22;50308;47.438;-1.528;2022-09-12T02:01:38;20.40;66.60
64062;DHT22;50308;47.438;-1.528;2022-09-12T02:04:13;20.40;66.30
64062;DHT22;50308;47.438;-1.528;2022-09-12T02:09:27;20.40;66.30
64062;DHT22;50308;47.438;-1.528;2022-09-12T02:11:58;20.40;66.50
64062;DHT22;50308;47.438;-1.528;2022-09-12T02:14:28;20.40;66.30
64062;DHT22;50308;47.438;-1.528;2022-09-12T02:17:05;20.30;66.50
64062;DHT22;50308;47.438;-1.528;2022-09-12T02:19:55;20.30;66.40
64062;DHT22;50308;47.438;-1.528;2022-09-12T02:22:25;20.30;66.70
64062;DHT22;50308;47.438;-1.528;2022-09-12T02:24:56;20.30;66.60
64062;DHT22;50308;47.438;-1.528;2022-09-12T02:27:41;20.20;66.70
64062;DHT22;50308;47.438;-1.528;2022-09-12T02:30:09;20.20;66.80
64062;DHT22;50308;47.438;-1.528;2022-09-12T02:32:36;20.20;67.20
64062;DHT22;50308;47.438;-1.528;2022-09-12T02:35:20;20.20;66.90
64062;DHT22;50308;47.438;-1.528;2022-09-12T02:40:23;20.20;67.00
64062;DHT22;50308;47.438;-1.528;2022-09-12T02:42:50;20.20;66.90
64062;DHT22;50308;47.438;-1.528;2022-09-12T02:45:16;20.20;67.00
64062;DHT22;50308;47.438;-1.528;2022-09-12T02:50:25;20.20;66.80
64062;DHT22;50308;47.438;-1.528;2022-09-12T02:52:52;20.10;67.00
64062;DHT22;50308;47.438;-1.528;2022-09-12T02:55:19;20.20;66.80
64062;DHT22;50308;47.438;-1.528;2022-09-12T02:57:45;20.20;67.00
64062;DHT22;50308;47.438;-1.528;2022-09-12T03:00:11;20.20;67.10
64062;DHT22;50308;47.438;-1.528;2022-09-12T03:03:00;20.20;66.80
64062;DHT22;50308;47.438;-1.528;2022-09-12T03:06:04;20.20;67.00
64062;DHT22;50308;47.438;-1.528;2022-09-12T03:11:08;20.20;66.80
64062;DHT22;50308;47.438;-1.528;2022-09-12T03:24:31;20.20;66.90
64062;DHT22;50308;47.438;-1.528;2022-09-12T03:27:13;20.20;66.80
64062;DHT22;50308;47.438;-1.528;2022-09-12T03:29:42;20.20;66.90
64062;DHT22;50308;47.438;-1.528;2022-09-12T03:32:09;20.20;66.80
64062;DHT22;50308;47.438;-1.528;2022-09-12T03:34:35;20.20;67.10
64062;DHT22;50308;47.438;-1.528;2022-09-12T03:37:01;20.10;67.00
64062;DHT22;50308;47.438;-1.528;2022-09-12T03:39:26;20.20;67.00
64062;DHT22;50308;47.438;-1.528;2022-09-12T03:41:53;20.20;67.00
64062;DHT22;50308;47.438;-1.528;2022-09-12T03:44:19;20.20;67.00
64062;DHT22;50308;47.438;-1.528;2022-09-12T03:46:45;20.10;67.00
64062;DHT22;50308;47.438;-1.528;2022-09-12T03:49:11;20.10;66.80
64062;DHT22;50308;47.438;-1.528;2022-09-12T03:51:38;20.10;66.60
64062;DHT22;50308;47.438;-1.528;2022-09-12T03:54:04;20.20;66.70
64062;DHT22;50308;47.438;-1.528;2022-09-12T03:56:30;20.20;66.60
64062;DHT22;50308;47.438;-1.528;2022-09-12T03:58:56;20.20;66.70
64062;DHT22;50308;47.438;-1.528;2022-09-12T04:01:22;20.20;66.50
64062;DHT22;50308;47.438;-1.528;2022-09-12T04:03:50;20.20;66.60
64062;DHT22;50308;47.438;-1.528;2022-09-12T04:06:20;20.20;66.60
64062;DHT22;50308;47.438;-1.528;2022-09-12T04:08:48;20.20;66.60
64062;DHT22;50308;47.438;-1.528;2022-09-12T04:11:15;20.20;66.30
64062;DHT22;50308;47.438;-1.528;2022-09-12T04:13:43;20.20;66.50
64062;DHT22;50308;47.438;-1.528;2022-09-12T04:16:10;20.20;66.50
64062;DHT22;50308;47.438;-1.528;2022-09-12T04:18:37;20.20;66.80
64062;DHT22;50308;47.438;-1.528;2022-09-12T04:21:08;20.20;66.60
64062;DHT22;50308;47.438;-1.528;2022-09-12T04:23:35;20.20;66.40
64062;DHT22;50308;47.438;-1.528;2022-09-12T04:26:03;20.10;66.40
64062;DHT22;50308;47.438;-1.528;2022-09-12T04:28:31;20.20;66.40
64062;DHT22;50308;47.438;-1.528;2022-09-12T04:31:04;20.20;66.60
64062;DHT22;50308;47.438;-1.528;2022-09-12T04:33:33;20.20;66.30
64062;DHT22;50308;47.438;-1.528;2022-09-12T04:36:07;20.20;66.30
64062;DHT22;50308;47.438;-1.528;2022-09-12T04:38:34;20.20;66.50
64062;DHT22;50308;47.438;-1.528;2022-09-12T04:41:22;20.20;66.40
64062;DHT22;50308;47.438;-1.528;2022-09-12T04:43:51;20.20;66.30
64062;DHT22;50308;47.438;-1.528;2022-09-12T04:46:17;20.20;66.20
64062;DHT22;50308;47.438;-1.528;2022-09-12T04:48:47;20.20;66.20
64062;DHT22;50308;47.438;-1.528;2022-09-12T04:51:20;20.20;66.00
64062;DHT22;50308;47.438;-1.528;2022-09-12T04:53:51;20.20;66.20
64062;DHT22;50308;47.438;-1.528;2022-09-12T04:56:21;20.20;66.90
64062;DHT22;50308;47.438;-1.528;2022-09-12T04:58:48;20.20;66.30
64062;DHT22;50308;47.438;-1.528;2022-09-12T05:01:17;20.20;66.10
64062;DHT22;50308;47.438;-1.528;2022-09-12T05:03:44;20.10;66.20
64062;DHT22;50308;47.438;-1.528;2022-09-12T05:06:13;20.00;66.30
64062;DHT22;50308;47.438;-1.528;2022-09-12T05:08:40;20.00;66.60
64062;DHT22;50308;47.438;-1.528;2022-09-12T05:11:11;20.00;66.40
64062;DHT22;50308;47.438;-1.528;2022-09-12T05:13:38;20.10;66.60
64062;DHT22;50308;47.438;-1.528;2022-09-12T05:16:06;20.00;66.30
64062;DHT22;50308;47.438;-1.528;2022-09-12T05:18:34;20.10;66.40
64062;DHT22;50308;47.438;-1.528;2022-09-12T05:21:02;20.00;66.40
64062;DHT22;50308;47.438;-1.528;2022-09-12T05:23:29;20.00;66.30
64062;DHT22;50308;47.438;-1.528;2022-09-12T05:25:56;20.00;66.30
64062;DHT22;50308;47.438;-1.528;2022-09-12T05:28:24;20.00;66.40
64062;DHT22;50308;47.438;-1.528;2022-09-12T05:31:04;20.00;66.30
64062;DHT22;50308;47.438;-1.528;2022-09-12T05:33:31;20.00;66.50
64062;DHT22;50308;47.438;-1.528;2022-09-12T05:35:58;20.00;66.30
64062;DHT22;50308;47.438;-1.528;2022-09-12T05:38:24;20.00;66.50
64062;DHT22;50308;47.438;-1.528;2022-09-12T05:40:52;20.00;66.40
64062;DHT22;50308;47.438;-1.528;2022-09-12T05:43:19;20.00;66.50
64062;DHT22;50308;47.438;-1.528;2022-09-12T05:45:45;20.00;66.10
64062;DHT22;50308;47.438;-1.528;2022-09-12T05:48:11;20.00;66.60
64062;DHT22;50308;47.438;-1.528;2022-09-12T05:50:37;19.90;66.30
64062;DHT22;50308;47.438;-1.528;2022-09-12T05:53:03;19.90;66.70
64062;DHT22;50308;47.438;-1.528;2022-09-12T05:55:28;19.80;66.80
64062;DHT22;50308;47.438;-1.528;2022-09-12T05:57:56;19.80;66.80
64062;DHT22;50308;47.438;-1.528;2022-09-12T06:00:22;19.70;67.50
64062;DHT22;50308;47.438;-1.528;2022-09-12T06:02:51;19.70;67.10
64062;DHT22;50308;47.438;-1.528;2022-09-12T06:05:18;19.70;67.00
64062;DHT22;50308;47.438;-1.528;2022-09-12T06:07:47;19.70;67.00
64062;DHT22;50308;47.438;-1.528;2022-09-12T06:10:13;19.70;66.90
64062;DHT22;50308;47.438;-1.528;2022-09-12T06:12:40;19.70;67.10
64062;DHT22;50308;47.438;-1.528;2022-09-12T06:15:07;19.80;67.40
64062;DHT22;50308;47.438;-1.528;2022-09-12T06:17:32;19.80;67.20
64062;DHT22;50308;47.438;-1.528;2022-09-12T06:19:58;19.90;67.00
64062;DHT22;50308;47.438;-1.528;2022-09-12T06:22:24;19.90;67.90
64062;DHT22;50308;47.438;-1.528;2022-09-12T06:24:50;20.00;66.70
64062;DHT22;50308;47.438;-1.528;2022-09-12T06:27:16;20.00;66.90
64062;DHT22;50308;47.438;-1.528;2022-09-12T06:29:42;20.00;67.10
64062;DHT22;50308;47.438;-1.528;2022-09-12T06:32:08;20.00;67.20
64062;DHT22;50308;47.438;-1.528;2022-09-12T06:34:35;20.00;67.00
64062;DHT22;50308;47.438;-1.528;2022-09-12T06:37:01;20.00;67.10
64062;DHT22;50308;47.438;-1.528;2022-09-12T06:39:28;20.10;67.10
64062;DHT22;50308;47.438;-1.528;2022-09-12T06:41:56;20.10;67.10
64062;DHT22;50308;47.438;-1.528;2022-09-12T06:44:22;20.20;66.80
64062;DHT22;50308;47.438;-1.528;2022-09-12T06:46:48;20.20;66.80
64062;DHT22;50308;47.438;-1.528;2022-09-12T06:49:16;20.20;66.80
64062;DHT22;50308;47.438;-1.528;2022-09-12T06:51:42;20.10;67.90
64062;DHT22;50308;47.438;-1.528;2022-09-12T06:54:12;20.20;66.80
64062;DHT22;50308;47.438;-1.528;2022-09-12T06:56:40;20.20;66.80
64062;DHT22;50308;47.438;-1.528;2022-09-12T06:59:07;20.20;66.80
64062;DHT22;50308;47.438;-1.528;2022-09-12T07:01:33;20.20;66.70
64062;DHT22;50308;47.438;-1.528;2022-09-12T07:04:00;20.20;66.60
64062;DHT22;50308;47.438;-1.528;2022-09-12T07:06:29;20.30;66.70
64062;DHT22;50308;47.438;-1.528;2022-09-12T07:09:00;20.30;66.70
64062;DHT22;50308;47.438;-1.528;2022-09-12T07:11:29;20.40;66.40
64062;DHT22;50308;47.438;-1.528;2022-09-12T07:14:10;20.40;66.50
64062;DHT22;50308;47.438;-1.528;2022-09-12T07:16:36;20.40;66.50
64062;DHT22;50308;47.438;-1.528;2022-09-12T07:19:03;20.40;66.40
64062;DHT22;50308;47.438;-1.528;2022-09-12T07:21:30;20.50;66.50
64062;DHT22;50308;47.438;-1.528;2022-09-12T07:23:56;20.50;66.50
64062;DHT22;50308;47.438;-1.528;2022-09-12T07:26:27;20.50;66.30
64062;DHT22;50308;47.438;-1.528;2022-09-12T07:28:53;20.60;66.20
64062;DHT22;50308;47.438;-1.528;2022-09-12T07:31:27;20.60;66.10
64062;DHT22;50308;47.438;-1.528;2022-09-12T07:33:53;20.60;66.00
64062;DHT22;50308;47.438;-1.528;2022-09-12T07:36:21;20.60;66.00
64062;DHT22;50308;47.438;-1.528;2022-09-12T07:38:52;20.60;65.70
64062;DHT22;50308;47.438;-1.528;2022-09-12T07:43:50;20.70;66.00
64062;DHT22;50308;47.438;-1.528;2022-09-12T07:46:16;20.70;66.00
64062;DHT22;50308;47.438;-1.528;2022-09-12T07:48:42;20.70;65.90
64062;DHT22;50308;47.438;-1.528;2022-09-12T07:51:13;20.70;65.90
64062;DHT22;50308;47.438;-1.528;2022-09-12T07:53:40;20.80;65.80
64062;DHT22;50308;47.438;-1.528;2022-09-12T07:58:34;20.80;65.50
64062;DHT22;50308;47.438;-1.528;2022-09-12T08:01:05;20.80;66.80
64062;DHT22;50308;47.438;-1.528;2022-09-12T08:03:34;20.90;67.10
64062;DHT22;50308;47.438;-1.528;2022-09-12T08:06:08;20.90;67.00
64062;DHT22;50308;47.438;-1.528;2022-09-12T08:08:35;20.90;67.00
64062;DHT22;50308;47.438;-1.528;2022-09-12T08:11:03;20.90;67.00
64062;DHT22;50308;47.438;-1.528;2022-09-12T08:13:31;20.90;66.80
64062;DHT22;50308;47.438;-1.528;2022-09-12T08:15:58;20.90;66.80
64062;DHT22;50308;47.438;-1.528;2022-09-12T08:18:25;20.90;66.60
64062;DHT22;50308;47.438;-1.528;2022-09-12T08:20:57;20.90;66.60
64062;DHT22;50308;47.438;-1.528;2022-09-12T08:23:23;20.90;66.40
64062;DHT22;50308;47.438;-1.528;2022-09-12T08:25:50;20.90;66.70
64062;DHT22;50308;47.438;-1.528;2022-09-12T08:28:16;21.00;66.30
64062;DHT22;50308;47.438;-1.528;2022-09-12T08:30:42;20.90;66.70
64062;DHT22;50308;47.438;-1.528;2022-09-12T08:33:08;20.90;66.70
64062;DHT22;50308;47.438;-1.528;2022-09-12T08:35:34;20.90;66.60
64062;DHT22;50308;47.438;-1.528;2022-09-12T08:37:59;21.00;66.60
64062;DHT22;50308;47.438;-1.528;2022-09-12T08:40:26;21.00;66.70
64062;DHT22;50308;47.438;-1.528;2022-09-12T08:43:03;21.00;66.70
64062;DHT22;50308;47.438;-1.528;2022-09-12T08:45:41;21.00;66.50
64062;DHT22;50308;47.438;-1.528;2022-09-12T08:48:11;21.00;66.30
64062;DHT22;50308;47.438;-1.528;2022-09-12T08:50:39;21.00;66.60
64062;DHT22;50308;47.438;-1.528;2022-09-12T08:53:13;21.00;66.50
64062;DHT22;50308;47.438;-1.528;2022-09-12T09:01:34;21.00;66.50
64062;DHT22;50308;47.438;-1.528;2022-09-12T09:18:18;21.10;66.50
64062;DHT22;50308;47.438;-1.528;2022-09-12T09:20:50;21.10;66.40
64062;DHT22;50308;47.438;-1.528;2022-09-12T09:23:25;21.10;66.30
64062;DHT22;50308;47.438;-1.528;2022-09-12T09:29:22;21.10;66.40
64062;DHT22;50308;47.438;-1.528;2022-09-12T09:31:18;21.10;66.50
64062;DHT22;50308;47.438;-1.528;2022-09-12T09:33:50;21.10;66.50
64062;DHT22;50308;47.438;-1.528;2022-09-12T09:45:14;21.20;66.40
64062;DHT22;50308;47.438;-1.528;2022-09-12T09:47:49;21.20;66.40
64062;DHT22;50308;47.438;-1.528;2022-09-12T09:50:16;21.20;66.40
64062;DHT22;50308;47.438;-1.528;2022-09-12T09:52:43;21.20;67.50
64062;DHT22;50308;47.438;-1.528;2022-09-12T09:55:16;21.20;66.30
64062;DHT22;50308;47.438;-1.528;2022-09-12T09:57:45;21.20;66.40
64062;DHT22;50308;47.438;-1.528;2022-09-12T10:05:27;21.20;66.40
64062;DHT22;50308;47.438;-1.528;2022-09-12T10:07:54;21.30;66.70
64062;DHT22;50308;47.438;-1.528;2022-09-12T10:10:20;21.30;66.80
64062;DHT22;50308;47.438;-1.528;2022-09-12T10:12:48;21.30;66.80
64062;DHT22;50308;47.438;-1.528;2022-09-12T10:15:25;21.30;66.80
64062;DHT22;50308;47.438;-1.528;2022-09-12T10:17:52;21.30;66.90
64062;DHT22;50308;47.438;-1.528;2022-09-12T10:20:38;21.30;66.80
64062;DHT22;50308;47.438;-1.528;2022-09-12T10:23:33;21.30;67.00
64062;DHT22;50308;47.438;-1.528;2022-09-12T10:26:07;21.30;67.00
64062;DHT22;50308;47.438;-1.528;2022-09-12T10:28:53;21.30;67.10
64062;DHT22;50308;47.438;-1.528;2022-09-12T10:31:26;21.30;67.00
64062;DHT22;50308;47.438;-1.528;2022-09-12T10:33:58;21.30;67.10
64062;DHT22;50308;47.438;-1.528;2022-09-12T10:36:34;21.30;67.00
64062;DHT22;50308;47.438;-1.528;2022-09-12T10:39:02;21.30;67.00
64062;DHT22;50308;47.438;-1.528;2022-09-12T10:41:35;21.40;67.00
64062;DHT22;50308;47.438;-1.528;2022-09-12T10:44:07;21.40;66.90
64062;DHT22;50308;47.438;-1.528;2022-09-12T10:46:37;21.40;66.90
64062;DHT22;50308;47.438;-1.528;2022-09-12T10:49:20;21.40;67.00
64062;DHT22;50308;47.438;-1.528;2022-09-12T10:51:47;21.40;66.90
64062;DHT22;50308;47.438;-1.528;2022-09-12T10:54:16;21.40;66.80
64062;DHT22;50308;47.438;-1.528;2022-09-12T11:08:12;21.40;66.90
64062;DHT22;50308;47.438;-1.528;2022-09-12T11:11:02;21.40;67.10
64062;DHT22;50308;47.438;-1.528;2022-09-12T11:14:36;21.40;67.00
64062;DHT22;50308;47.438;-1.528;2022-09-12T11:17:04;21.40;66.90
64062;DHT22;50308;47.438;-1.528;2022-09-12T11:22:40;21.40;67.00
64062;DHT22;50308;47.438;-1.528;2022-09-12T11:30:36;21.40;67.00
64062;DHT22;50308;47.438;-1.528;2022-09-12T11:36:06;21.50;66.80
64062;DHT22;50308;47.438;-1.528;2022-09-12T11:39:23;21.50;67.00
64062;DHT22;50308;47.438;-1.528;2022-09-12T11:41:57;21.50;66.90
64062;DHT22;50308;47.438;-1.528;2022-09-12T11:44:32;21.50;67.00
64062;DHT22;50308;47.438;-1.528;2022-09-12T11:47:04;21.60;67.10
64062;DHT22;50308;47.438;-1.528;2022-09-12T11:49:36;21.60;67.10
64062;DHT22;50308;47.438;-1.528;2022-09-12T11:52:19;21.60;67.00
64062;DHT22;50308;47.438;-1.528;2022-09-12T12:00:04;21.60;67.20
64062;DHT22;50308;47.438;-1.528;2022-09-12T12:02:39;21.70;67.40
64062;DHT22;50308;47.438;-1.528;2022-09-12T12:05:19;21.70;67.20
64062;DHT22;50308;47.438;-1.528;2022-09-12T12:07:58;21.70;67.40
64062;DHT22;50308;47.438;-1.528;2022-09-12T12:12:56;21.70;67.30
64062;DHT22;50308;47.438;-1.528;2022-09-12T12:15:23;21.70;67.20
64062;DHT22;50308;47.438;-1.528;2022-09-12T12:18:07;21.70;67.20
64062;DHT22;50308;47.438;-1.528;2022-09-12T12:20:39;21.70;67.20
64062;DHT22;50308;47.438;-1.528;2022-09-12T12:23:05;21.70;67.30
64062;DHT22;50308;47.438;-1.528;2022-09-12T12:25:50;21.70;67.30
64062;DHT22;50308;47.438;-1.528;2022-09-12T12:31:07;21.70;67.40
64062;DHT22;50308;47.438;-1.528;2022-09-12T12:36:06;21.70;67.50
64062;DHT22;50308;47.438;-1.528;2022-09-12T12:38:34;21.70;68.50
64062;DHT22;50308;47.438;-1.528;2022-09-12T12:43:42;21.80;67.60
64062;DHT22;50308;47.438;-1.528;2022-09-12T12:46:10;21.80;67.50
64062;DHT22;50308;47.438;-1.528;2022-09-12T12:54:29;21.80;67.60
64062;DHT22;50308;47.438;-1.528;2022-09-12T12:57:48;21.80;67.60
64062;DHT22;50308;47.438;-1.528;2022-09-12T12:59:58;21.80;67.60
64062;DHT22;50308;47.438;-1.528;2022-09-12T13:02:41;21.80;67.60
64062;DHT22;50308;47.438;-1.528;2022-09-12T13:05:22;21.80;67.70
64062;DHT22;50308;47.438;-1.528;2022-09-12T13:08:03;21.80;67.60
64062;DHT22;50308;47.438;-1.528;2022-09-12T13:10:31;21.80;67.60
64062;DHT22;50308;47.438;-1.528;2022-09-12T13:12:59;21.80;67.80
64062;DHT22;50308;47.438;-1.528;2022-09-12T13:18:04;21.80;67.80
64062;DHT22;50308;47.438;-1.528;2022-09-12T13:20:34;21.80;67.70
64062;DHT22;50308;47.438;-1.528;2022-09-12T13:23:02;21.90;67.70
64062;DHT22;50308;47.438;-1.528;2022-09-12T13:25:32;21.90;67.90
64062;DHT22;50308;47.438;-1.528;2022-09-12T13:27:59;21.90;67.80
64062;DHT22;50308;47.438;-1.528;2022-09-12T13:30:26;21.90;67.80
64062;DHT22;50308;47.438;-1.528;2022-09-12T13:32:56;21.90;67.90
64062;DHT22;50308;47.438;-1.528;2022-09-12T13:35:41;21.90;67.90
64062;DHT22;50308;47.438;-1.528;2022-09-12T13:38:36;21.90;67.90
64062;DHT22;50308;47.438;-1.528;2022-09-12T13:43:50;21.90;68.10
64062;DHT22;50308;47.438;-1.528;2022-09-12T13:46:21;21.90;68.10
64062;DHT22;50308;47.438;-1.528;2022-09-12T13:48:51;21.90;68.00
64062;DHT22;50308;47.438;-1.528;2022-09-12T13:51:24;21.90;68.10
64062;DHT22;50308;47.438;-1.528;2022-09-12T13:53:53;21.90;68.10
64062;DHT22;50308;47.438;-1.528;2022-09-12T13:56:21;21.90;68.20
64062;DHT22;50308;47.438;-1.528;2022-09-12T13:59:09;21.90;68.20
64062;DHT22;50308;47.438;-1.528;2022-09-12T14:01:42;22.00;68.10
64062;DHT22;50308;47.438;-1.528;2022-09-12T14:04:15;22.00;68.20
64062;DHT22;50308;47.438;-1.528;2022-09-12T14:07:01;21.90;68.00
64062;DHT22;50308;47.438;-1.528;2022-09-12T14:09:36;22.00;68.00
64062;DHT22;50308;47.438;-1.528;2022-09-12T14:12:03;22.00;67.90
64062;DHT22;50308;47.438;-1.528;2022-09-12T14:14:35;21.90;67.80
64062;DHT22;50308;47.438;-1.528;2022-09-12T14:17:21;22.00;67.90
64062;DHT22;50308;47.438;-1.528;2022-09-12T14:19:48;21.90;67.70
64062;DHT22;50308;47.438;-1.528;2022-09-12T14:22:15;22.00;67.90
64062;DHT22;50308;47.438;-1.528;2022-09-12T14:24:47;22.00;67.90
64062;DHT22;50308;47.438;-1.528;2022-09-12T14:27:43;22.00;67.80
64062;DHT22;50308;47.438;-1.528;2022-09-12T14:30:36;22.00;67.80
64062;DHT22;50308;47.438;-1.528;2022-09-12T14:35:35;22.00;67.90
64062;DHT22;50308;47.438;-1.528;2022-09-12T14:38:21;22.00;67.90
64062;DHT22;50308;47.438;-1.528;2022-09-12T14:40:57;22.00;68.00
64062;DHT22;50308;47.438;-1.528;2022-09-12T14:43:29;22.00;68.00
64062;DHT22;50308;47.438;-1.528;2022-09-12T14:46:16;22.00;68.00
64062;DHT22;50308;47.438;-1.528;2022-09-12T14:48:53;22.00;68.10
64062;DHT22;50308;47.438;-1.528;2022-09-12T14:51:24;22.10;68.00
64062;DHT22;50308;47.438;-1.528;2022-09-12T14:53:50;22.10;67.90
64062;DHT22;50308;47.438;-1.528;2022-09-12T14:56:16;22.10;67.90
64062;DHT22;50308;47.438;-1.528;2022-09-12T14:58:45;22.10;68.00
64062;DHT22;50308;47.438;-1.528;2022-09-12T15:03:52;22.10;67.90
64062;DHT22;50308;47.438;-1.528;2022-09-12T15:06:31;22.10;67.80
64062;DHT22;50308;47.438;-1.528;2022-09-12T15:09:01;22.10;68.00
64062;DHT22;50308;47.438;-1.528;2022-09-12T15:11:28;22.10;67.80
64062;DHT22;50308;47.438;-1.528;2022-09-12T15:13:53;22.10;67.90
64062;DHT22;50308;47.438;-1.528;2022-09-12T15:16:19;22.10;67.90
64062;DHT22;50308;47.438;-1.528;2022-09-12T15:18:45;22.10;68.00
64062;DHT22;50308;47.438;-1.528;2022-09-12T15:21:17;22.20;68.00
64062;DHT22;50308;47.438;-1.528;2022-09-12T15:23:44;22.20;67.90
64062;DHT22;50308;47.438;-1.528;2022-09-12T15:26:16;22.20;68.10
64062;DHT22;50308;47.438;-1.528;2022-09-12T15:28:42;22.20;68.00
64062;DHT22;50308;47.438;-1.528;2022-09-12T15:31:34;22.20;68.00
64062;DHT22;50308;47.438;-1.528;2022-09-12T15:34:01;22.20;67.90
64062;DHT22;50308;47.438;-1.528;2022-09-12T15:36:27;22.20;67.90
64062;DHT22;50308;47.438;-1.528;2022-09-12T15:38:53;22.20;68.00
64062;DHT22;50308;47.438;-1.528;2022-09-12T15:41:22;22.20;68.00
64062;DHT22;50308;47.438;-1.528;2022-09-12T15:43:48;22.20;68.00
64062;DHT22;50308;47.438;-1.528;2022-09-12T15:46:15;22.20;67.90
64062;DHT22;50308;47.438;-1.528;2022-09-12T15:48:42;22.20;67.90
64062;DHT22;50308;47.438;-1.528;2022-09-12T15:51:19;22.20;68.00
64062;DHT22;50308;47.438;-1.528;2022-09-12T15:53:46;22.20;68.00
64062;DHT22;50308;47.438;-1.528;2022-09-12T15:56:22;22.20;67.90
64062;DHT22;50308;47.438;-1.528;2022-09-12T15:58:48;22.20;67.90
64062;DHT22;50308;47.438;-1.528;2022-09-12T16:01:16;22.20;68.00
64062;DHT22;50308;47.438;-1.528;2022-09-12T16:03:44;22.20;68.00
64062;DHT22;50308;47.438;-1.528;2022-09-12T16:06:10;22.20;68.00
64062;DHT22;50308;47.438;-1.528;2022-09-12T16:08:36;22.20;68.00
64062;DHT22;50308;47.438;-1.528;2022-09-12T16:11:09;22.20;68.10
64062;DHT22;50308;47.438;-1.528;2022-09-12T16:13:36;22.20;68.10
64062;DHT22;50308;47.438;-1.528;2022-09-12T16:16:02;22.20;68.00
64062;DHT22;50308;47.438;-1.528;2022-09-12T16:18:28;22.20;68.10
64062;DHT22;50308;47.438;-1.528;2022-09-12T16:20:55;22.20;68.10
64062;DHT22;50308;47.438;-1.528;2022-09-12T16:23:21;22.20;68.20
64062;DHT22;50308;47.438;-1.528;2022-09-12T16:26:01;22.20;68.20
64062;DHT22;50308;47.438;-1.528;2022-09-12T16:28:27;22.20;68.00
64062;DHT22;50308;47.438;-1.528;2022-09-12T16:30:58;22.20;68.10
64062;DHT22;50308;47.438;-1.528;2022-09-12T16:38:25;22.30;68.20
64062;DHT22;50308;47.438;-1.528;2022-09-12T16:40:50;22.30;68.20
64062;DHT22;50308;47.438;-1.528;2022-09-12T16:48:41;22.30;68.10
64062;DHT22;50308;47.438;-1.528;2022-09-12T16:51:08;22.30;68.10
64062;DHT22;50308;47.438;-1.528;2022-09-12T16:53:35;22.30;68.20
64062;DHT22;50308;47.438;-1.528;2022-09-12T16:56:02;22.30;68.20
64062;DHT22;50308;47.438;-1.528;2022-09-12T16:58:35;22.30;68.10
64062;DHT22;50308;47.438;-1.528;2022-09-12T17:01:12;22.30;68.20
64062;DHT22;50308;47.438;-1.528;2022-09-12T17:03:38;22.30;68.20
64062;DHT22;50308;47.438;-1.528;2022-09-12T17:06:06;22.30;68.10
64062;DHT22;50308;47.438;-1.528;2022-09-12T17:08:37;22.30;68.10
64062;DHT22;50308;47.438;-1.528;2022-09-12T17:13:39;22.30;68.10
64062;DHT22;50308;47.438;-1.528;2022-09-12T17:16:09;22.30;68.10
64062;DHT22;50308;47.438;-1.528;2022-09-12T17:18:39;22.30;68.10
64062;DHT22;50308;47.438;-1.528;2022-09-12T17:21:06;22.30;68.10
64062;DHT22;50308;47.438;-1.528;2022-09-12T17:23:32;22.30;68.10
64062;DHT22;50308;47.438;-1.528;2022-09-12T17:25:58;22.30;68.10
64062;DHT22;50308;47.438;-1.528;2022-09-12T17:28:24;22.30;68.10
64062;DHT22;50308;47.438;-1.528;2022-09-12T17:31:01;22.30;68.10
64062;DHT22;50308;47.438;-1.528;2022-09-12T17:33:28;22.30;68.00
64062;DHT22;50308;47.438;-1.528;2022-09-12T17:35:54;22.30;68.00
64062;DHT22;50308;47.438;-1.528;2022-09-12T17:38:20;22.30;68.00
64062;DHT22;50308;47.438;-1.528;2022-09-12T17:40:47;22.40;68.10
64062;DHT22;50308;47.438;-1.528;2022-09-12T17:43:16;22.40;68.00
64062;DHT22;50308;47.438;-1.528;2022-09-12T17:45:42;22.40;68.00
64062;DHT22;50308;47.438;-1.528;2022-09-12T17:50:35;22.40;68.00
64062;DHT22;50308;47.438;-1.528;2022-09-12T17:53:01;22.30;67.90
64062;DHT22;50308;47.438;-1.528;2022-09-12T17:55:26;22.40;68.00
64062;DHT22;50308;47.438;-1.528;2022-09-12T17:57:57;22.40;68.10
64062;DHT22;50308;47.438;-1.528;2022-09-12T18:00:25;22.40;68.00
64062;DHT22;50308;47.438;-1.528;2022-09-12T18:03:12;22.40;68.00
64062;DHT22;50308;47.438;-1.528;2022-09-12T18:05:47;22.40;68.00